Time;durP1;ratioP1;P1;durP2;ratioP2;P2;SDS_P1;SDS_P2;PMS_P1;PMS_P2;Temp;Humidity;BMP_temperature;BMP_pressure;BME280_temperature;BME280_humidity;BME280_pressure;Samples;Min_cycle;Max_cycle;Signal;HPM_P1;HPM_P2
2022/12/05 00:01:22;;;;;;;1.50;1.40;;;6.70;90.40;;;;;;4954252;28;20179;-77
2022/12/05 00:03:50;;;;;;;1.97;1.50;;;6.70;90.40;;;;;;4955866;28;20190;-76
2022/12/05 00:06:16;;;;;;;1.90;1.47;;;6.70;90.50;;;;;;4950455;28;20211;-76
2022/12/05 00:08:43;;;;;;;2.57;1.40;;;6.80;90.50;;;;;;4949632;28;20191;-76
2022/12/05 00:11:14;;;;;;;1.43;1.43;;;6.80;90.50;;;;;;4950708;28;20214;-76
2022/12/05 00:13:41;;;;;;;1.80;1.47;;;6.80;90.60;;;;;;4949409;28;20294;-77
2022/12/05 00:16:12;;;;;;;1.90;1.80;;;6.80;90.30;;;;;;4956659;28;20192;-77
2022/12/05 00:18:38;;;;;;;2.40;1.33;;;6.70;90.40;;;;;;4950564;28;20218;-77
2022/12/05 00:21:05;;;;;;;2.77;1.37;;;6.70;90.50;;;;;;4955108;28;20245;-77
2022/12/05 00:23:30;;;;;;;2.60;2.03;;;6.70;90.40;;;;;;4953873;28;20628;-77
2022/12/05 00:25:56;;;;;;;1.70;1.60;;;6.70;90.40;;;;;;4953696;28;20213;-77
2022/12/05 00:28:22;;;;;;;1.53;1.37;;;6.70;90.30;;;;;;4953344;28;20213;-77
2022/12/05 00:30:47;;;;;;;1.60;1.50;;;6.70;90.30;;;;;;4954672;28;20190;-77
2022/12/05 00:33:13;;;;;;;1.60;1.50;;;6.70;90.20;;;;;;4955171;28;20222;-77
2022/12/05 00:35:38;;;;;;;1.63;1.33;;;6.70;90.10;;;;;;4953134;28;20198;-76
2022/12/05 00:38:04;;;;;;;1.93;1.80;;;6.70;90.20;;;;;;4953113;28;20717;-77
2022/12/05 00:40:30;;;;;;;1.43;1.33;;;6.70;90.10;;;;;;4958359;28;20183;-77
2022/12/05 00:42:56;;;;;;;1.50;1.40;;;6.70;90.20;;;;;;4953252;28;20735;-77
2022/12/05 00:45:21;;;;;;;1.83;1.70;;;6.70;90.40;;;;;;4959858;28;20195;-77
2022/12/05 00:47:47;;;;;;;2.07;1.73;;;6.70;90.30;;;;;;4958031;28;20638;-78
2022/12/05 00:50:13;;;;;;;1.80;1.70;;;6.70;90.20;;;;;;4955306;28;20180;-77
2022/12/05 00:52:38;;;;;;;2.00;1.83;;;6.60;90.20;;;;;;4952395;28;21055;-76
2022/12/05 00:55:04;;;;;;;1.57;1.47;;;6.60;90.20;;;;;;4952678;28;20190;-77
2022/12/05 00:57:31;;;;;;;1.70;1.60;;;6.60;90.30;;;;;;4955477;28;20245;-77
2022/12/05 00:59:56;;;;;;;1.60;1.50;;;6.60;90.30;;;;;;4951303;28;20186;-78
2022/12/05 01:02:22;;;;;;;1.50;1.27;;;6.60;90.30;;;;;;4951499;28;20577;-76
2022/12/05 01:04:48;;;;;;;1.47;1.33;;;6.50;90.40;;;;;;4948152;28;20287;-76
2022/12/05 01:07:14;;;;;;;1.83;1.53;;;6.50;90.40;;;;;;4953126;28;20194;-78
2022/12/05 01:09:39;;;;;;;1.50;1.40;;;6.50;90.70;;;;;;4958018;28;21146;-77
2022/12/05 01:12:05;;;;;;;7.30;2.20;;;6.50;90.70;;;;;;4953530;28;20229;-77
2022/12/05 01:14:31;;;;;;;2.10;1.97;;;6.50;90.80;;;;;;4959266;28;20569;-76
2022/12/05 01:16:57;;;;;;;2.80;2.53;;;6.40;90.90;;;;;;4949650;28;20202;-76
2022/12/05 01:19:25;;;;;;;2.87;1.50;;;6.40;90.70;;;;;;4954951;28;20190;-76
2022/12/05 01:21:52;;;;;;;1.50;1.50;;;6.40;90.90;;;;;;4956383;28;20194;-76
2022/12/05 01:24:18;;;;;;;2.20;1.40;;;6.30;91.00;;;;;;4951527;28;20743;-77
2022/12/05 01:26:45;;;;;;;2.67;1.80;;;6.40;91.10;;;;;;4951777;28;20191;-77
2022/12/05 01:29:13;;;;;;;1.37;1.27;;;6.30;91.10;;;;;;4951975;28;20190;-78
2022/12/05 01:31:39;;;;;;;2.23;2.03;;;6.30;91.10;;;;;;4952033;28;20207;-77
2022/12/05 01:34:08;;;;;;;3.17;1.70;;;6.30;91.20;;;;;;4959046;28;20186;-77
2022/12/05 01:36:35;;;;;;;1.87;1.60;;;6.30;91.40;;;;;;4952527;28;20191;-77
2022/12/05 01:39:00;;;;;;;1.27;1.20;;;6.30;91.40;;;;;;4952683;28;20226;-76
2022/12/05 01:41:31;;;;;;;2.20;1.77;;;6.30;91.30;;;;;;4949932;28;20210;-77
2022/12/05 01:44:12;;;;;;;1.90;1.60;;;6.40;91.60;;;;;;4947358;28;20583;-76
2022/12/05 01:46:43;;;;;;;2.80;2.03;;;6.40;91.50;;;;;;4951534;28;20195;-76
2022/12/05 01:49:20;;;;;;;2.27;1.77;;;6.30;91.60;;;;;;4956684;28;20267;-76
2022/12/05 01:51:52;;;;;;;1.10;1.07;;;6.30;91.50;;;;;;4952230;28;20280;-77
2022/12/05 01:54:21;;;;;;;4.90;1.70;;;6.40;91.40;;;;;;4953619;28;20614;-77
2022/12/05 01:56:55;;;;;;;2.00;1.60;;;6.40;91.40;;;;;;4951007;28;20186;-77
2022/12/05 01:59:22;;;;;;;1.87;1.50;;;6.40;91.50;;;;;;4952981;28;20279;-77
2022/12/05 02:01:48;;;;;;;1.93;1.83;;;6.40;91.40;;;;;;4954579;28;20206;-78
2022/12/05 02:04:14;;;;;;;2.03;1.57;;;6.40;91.30;;;;;;4943521;28;20849;-76
2022/12/05 02:06:40;;;;;;;1.10;1.10;;;6.50;91.40;;;;;;4954149;28;20316;-77
2022/12/05 02:09:06;;;;;;;3.30;1.87;;;6.50;91.30;;;;;;4954196;28;20947;-78
2022/12/05 02:11:33;;;;;;;6.67;2.00;;;6.60;91.30;;;;;;4953768;28;20224;-76
2022/12/05 02:13:59;;;;;;;9.40;1.90;;;6.60;91.50;;;;;;4951071;28;20190;-76
2022/12/05 02:16:30;;;;;;;3.20;1.83;;;6.60;91.30;;;;;;4950364;28;20183;-77
2022/12/05 02:19:34;;;;;;;1.73;1.67;;;6.70;91.40;;;;;;4948377;28;20667;-78
2022/12/05 02:22:09;;;;;;;2.10;1.43;;;6.70;91.10;;;;;;4951817;28;20190;-77
2022/12/05 02:24:56;;;;;;;1.43;1.33;;;6.70;91.10;;;;;;4950845;28;20253;-76
2022/12/05 02:27:36;;;;;;;1.43;1.37;;;6.70;91.20;;;;;;4954047;28;20210;-76
2022/12/05 02:30:19;;;;;;;1.70;1.60;;;6.70;91.30;;;;;;4951042;28;20237;-76
2022/12/05 02:33:07;;;;;;;1.90;1.80;;;6.70;91.10;;;;;;4949965;28;20214;-76
2022/12/05 02:35:57;;;;;;;1.90;1.40;;;6.80;91.10;;;;;;4952955;28;20266;-76
2022/12/05 02:38:50;;;;;;;1.83;1.20;;;6.80;91.10;;;;;;4946833;28;20206;-77
2022/12/05 02:41:26;;;;;;;1.53;1.43;;;6.80;91.10;;;;;;4881732;29;20645;-75
2022/12/05 02:44:14;;;;;;;1.60;1.50;;;6.80;91.20;;;;;;4885033;29;20220;-76
2022/12/05 02:46:41;;;;;;;1.30;1.30;;;6.80;91.20;;;;;;4886058;29;20196;-77
2022/12/05 02:49:15;;;;;;;2.13;1.53;;;6.80;91.00;;;;;;4879886;29;20198;-77
2022/12/05 02:51:47;;;;;;;2.57;2.13;;;6.80;91.10;;;;;;4882704;29;20731;-76
2022/12/05 02:54:18;;;;;;;1.40;1.33;;;6.90;91.20;;;;;;4886227;29;20323;-75
2022/12/05 02:56:46;;;;;;;3.53;2.33;;;6.80;91.10;;;;;;4889645;29;20193;-76
2022/12/05 02:59:12;;;;;;;1.83;1.40;;;6.80;91.00;;;;;;4882367;29;20203;-76
2022/12/05 03:01:38;;;;;;;1.50;1.40;;;6.90;91.10;;;;;;4886496;29;20193;-76
2022/12/05 03:04:06;;;;;;;1.73;1.63;;;6.90;91.10;;;;;;4883444;29;20207;-76
2022/12/05 03:06:37;;;;;;;2.47;2.03;;;6.90;90.90;;;;;;4884439;29;20638;-76
2022/12/05 03:09:05;;;;;;;1.90;1.60;;;6.90;91.00;;;;;;4889430;29;20417;-75
2022/12/05 03:11:44;;;;;;;1.77;1.70;;;6.90;91.00;;;;;;4886742;29;20232;-77
2022/12/05 03:14:20;;;;;;;1.53;1.43;;;6.90;91.00;;;;;;4887653;29;20717;-76
2022/12/05 03:16:52;;;;;;;1.80;1.57;;;7.00;90.90;;;;;;4889683;29;20400;-77
2022/12/05 03:19:46;;;;;;;1.83;1.80;;;7.00;90.90;;;;;;4942529;28;20193;-77
2022/12/05 03:22:32;;;;;;;1.10;1.10;;;7.00;90.90;;;;;;4888420;29;20223;-77
2022/12/05 03:24:59;;;;;;;2.40;1.30;;;7.10;90.90;;;;;;4888925;29;20193;-77
2022/12/05 03:27:32;;;;;;;1.63;1.50;;;7.10;91.00;;;;;;4889532;29;20205;-77
2022/12/05 03:30:00;;;;;;;3.00;1.70;;;7.10;90.70;;;;;;4889107;29;20235;-76
2022/12/05 03:32:34;;;;;;;1.43;1.33;;;7.10;90.70;;;;;;4887168;29;20232;-76
2022/12/05 03:35:25;;;;;;;1.33;0.97;;;7.10;90.80;;;;;;4888854;29;20200;-76
2022/12/05 03:38:23;;;;;;;2.50;2.10;;;7.20;90.70;;;;;;4873330;29;20189;-77
2022/12/05 03:41:01;;;;;;;1.60;1.50;;;7.20;90.70;;;;;;4829081;29;20286;-77
2022/12/05 03:43:44;;;;;;;2.17;1.67;;;7.20;90.70;;;;;;4824810;29;20588;-77
2022/12/05 03:46:34;;;;;;;2.40;1.73;;;7.20;90.70;;;;;;4821271;29;20207;-77
2022/12/05 03:49:29;;;;;;;2.03;1.43;;;7.20;90.60;;;;;;4823040;29;20206;-76
2022/12/05 03:52:13;;;;;;;2.93;1.70;;;7.20;90.50;;;;;;4803011;29;20239;-76
2022/12/05 03:54:50;;;;;;;3.07;2.23;;;7.20;90.50;;;;;;4808593;29;20644;-77
2022/12/05 03:57:42;;;;;;;2.07;1.77;;;7.20;90.60;;;;;;4806340;29;20251;-77
2022/12/05 04:00:17;;;;;;;3.17;1.83;;;7.10;90.50;;;;;;4831931;29;20202;-76
2022/12/05 04:02:59;;;;;;;3.73;2.00;;;7.20;90.60;;;;;;4838133;29;20305;-76
2022/12/05 04:05:49;;;;;;;2.63;2.00;;;7.10;90.50;;;;;;4842542;29;20194;-76
2022/12/05 04:08:48;;;;;;;2.80;2.20;;;7.10;90.60;;;;;;4835541;29;20618;-77
2022/12/05 04:11:19;;;;;;;2.30;2.10;;;7.10;90.60;;;;;;4781886;29;20258;-77
2022/12/05 04:13:54;;;;;;;3.23;2.10;;;7.10;90.80;;;;;;4786310;29;20231;-76
2022/12/05 04:19:26;;;;;;;2.80;2.37;;;7.10;90.80;;;;;;4858498;29;20341;-76
2022/12/05 04:21:55;;;;;;;2.97;1.90;;;7.10;90.90;;;;;;4852476;29;20319;-77
2022/12/05 04:27:38;;;;;;;2.57;2.03;;;7.10;90.70;;;;;;4858273;29;20281;-77
2022/12/05 04:30:06;;;;;;;5.20;1.83;;;7.10;90.50;;;;;;4819179;29;20264;-77
2022/12/05 04:32:43;;;;;;;3.17;1.73;;;7.10;90.60;;;;;;4817619;29;20389;-77
2022/12/05 04:35:16;;;;;;;2.27;2.17;;;7.20;90.60;;;;;;4821135;29;20611;-77
2022/12/05 04:37:46;;;;;;;3.17;2.23;;;7.20;90.60;;;;;;4819999;29;20196;-77
2022/12/05 04:40:23;;;;;;;2.50;2.30;;;7.20;90.60;;;;;;4820056;29;20200;-76
2022/12/05 04:42:51;;;;;;;2.83;1.70;;;7.20;90.50;;;;;;4818856;29;20192;-76
2022/12/05 04:45:20;;;;;;;3.67;2.10;;;7.20;90.50;;;;;;4817403;29;20190;-76
2022/12/05 04:47:51;;;;;;;2.17;1.97;;;7.20;90.50;;;;;;4884460;29;20696;-76
2022/12/05 04:50:17;;;;;;;3.20;2.23;;;7.20;90.40;;;;;;4912998;29;20328;-76
2022/12/05 04:52:47;;;;;;;6.40;2.40;;;7.20;90.50;;;;;;4912983;29;20223;-75
2022/12/05 04:55:24;;;;;;;2.73;2.53;;;7.20;90.50;;;;;;4913968;29;21093;-77
2022/12/05 04:57:55;;;;;;;2.93;2.20;;;7.20;90.40;;;;;;4915696;29;20206;-76
2022/12/05 05:00:21;;;;;;;1.97;1.87;;;7.20;90.20;;;;;;4910713;29;20255;-76
2022/12/05 05:02:58;;;;;;;2.53;2.33;;;7.20;90.50;;;;;;4907438;29;21171;-76
2022/12/05 05:05:25;;;;;;;2.50;2.07;;;7.10;90.40;;;;;;4908867;29;20219;-76
2022/12/05 05:07:54;;;;;;;2.70;2.50;;;7.10;90.50;;;;;;4948983;28;20221;-76
2022/12/05 05:10:38;;;;;;;2.10;1.90;;;7.10;90.60;;;;;;4951515;28;20183;-76
2022/12/05 05:13:04;;;;;;;4.07;2.70;;;7.20;90.60;;;;;;4952574;28;20655;-76
2022/12/05 05:15:30;;;;;;;2.53;2.07;;;7.20;90.60;;;;;;4956498;28;20211;-76
2022/12/05 05:17:55;;;;;;;1.67;1.57;;;7.20;90.60;;;;;;4952230;28;20266;-76
2022/12/05 05:20:24;;;;;;;1.97;1.87;;;7.20;90.70;;;;;;4951507;28;20183;-77
2022/12/05 05:22:50;;;;;;;4.90;2.17;;;7.20;90.70;;;;;;4939798;28;20190;-77
2022/12/05 05:25:17;;;;;;;3.57;2.60;;;7.20;90.60;;;;;;4950369;28;20190;-77
2022/12/05 05:27:46;;;;;;;8.33;1.60;;;7.10;90.60;;;;;;4961028;28;20652;-78
2022/12/05 05:30:12;;;;;;;2.30;1.80;;;7.10;90.70;;;;;;4952113;28;20193;-76
2022/12/05 05:32:37;;;;;;;2.93;2.30;;;7.10;90.70;;;;;;4952818;28;20214;-75
2022/12/05 05:35:03;;;;;;;1.97;1.77;;;7.10;90.80;;;;;;4956154;28;20194;-76
2022/12/05 05:37:29;;;;;;;3.13;1.70;;;7.10;90.80;;;;;;4946485;28;20330;-76
2022/12/05 05:39:54;;;;;;;2.40;2.10;;;7.10;90.90;;;;;;4950226;28;20194;-76
2022/12/05 05:42:20;;;;;;;2.80;2.10;;;7.10;90.90;;;;;;4954166;28;20191;-77
2022/12/05 05:44:46;;;;;;;2.30;2.10;;;7.10;90.80;;;;;;4948178;28;20677;-74
2022/12/05 05:47:11;;;;;;;3.53;2.13;;;7.20;90.90;;;;;;4957758;28;20191;-76
2022/12/05 05:49:37;;;;;;;3.63;2.07;;;7.20;90.80;;;;;;4952849;28;20187;-77
2022/12/05 05:52:03;;;;;;;3.63;1.47;;;7.20;90.80;;;;;;4952857;28;20780;-78
2022/12/05 05:54:29;;;;;;;1.60;1.50;;;7.20;90.80;;;;;;4953707;28;20187;-78
2022/12/05 05:56:54;;;;;;;1.93;1.83;;;7.20;90.80;;;;;;4956606;28;20687;-76
2022/12/05 05:59:20;;;;;;;4.07;2.37;;;7.20;90.90;;;;;;4950230;28;20206;-73
2022/12/05 06:01:46;;;;;;;2.90;2.03;;;7.20;90.80;;;;;;4948102;28;20191;-73
2022/12/05 06:04:11;;;;;;;3.60;2.17;;;7.20;90.90;;;;;;4947736;28;20179;-76
2022/12/05 06:06:37;;;;;;;1.93;1.83;;;7.20;90.90;;;;;;4953506;28;20245;-71
2022/12/05 06:09:06;;;;;;;2.93;1.70;;;7.30;91.00;;;;;;4952445;28;20190;-72
2022/12/05 06:11:31;;;;;;;1.73;1.63;;;7.30;90.90;;;;;;4955339;28;20205;-71
2022/12/05 06:14:02;;;;;;;3.23;1.87;;;7.30;90.90;;;;;;4949481;28;20194;-71
2022/12/05 06:16:29;;;;;;;2.20;2.00;;;7.30;90.90;;;;;;4952813;28;20183;-73
2022/12/05 06:18:55;;;;;;;4.87;2.13;;;7.30;90.90;;;;;;4951967;28;20182;-71
2022/12/05 06:21:22;;;;;;;5.23;1.73;;;7.30;90.80;;;;;;4950712;28;20186;-71
2022/12/05 06:23:48;;;;;;;3.07;2.00;;;7.40;90.90;;;;;;4948254;28;20183;-72
2022/12/05 06:26:17;;;;;;;1.70;1.53;;;7.40;90.90;;;;;;4952805;28;20672;-70
2022/12/05 06:28:43;;;;;;;10.70;2.13;;;7.40;90.80;;;;;;4950032;28;20244;-72
2022/12/05 06:31:11;;;;;;;2.07;1.73;;;7.40;90.80;;;;;;4951010;28;20193;-71
2022/12/05 06:33:37;;;;;;;6.57;2.63;;;7.40;90.80;;;;;;4951894;28;20257;-71
2022/12/05 06:36:05;;;;;;;2.43;2.20;;;7.50;90.70;;;;;;4953331;28;20265;-71
2022/12/05 06:38:30;;;;;;;2.30;2.10;;;7.50;90.70;;;;;;4951605;28;20195;-72
2022/12/05 06:40:56;;;;;;;3.87;1.90;;;7.40;90.60;;;;;;4955907;28;20181;-71
2022/12/05 06:43:24;;;;;;;6.30;2.10;;;7.40;90.60;;;;;;4952590;28;20793;-72
2022/12/05 06:45:50;;;;;;;4.13;2.03;;;7.40;90.50;;;;;;4948509;28;20632;-72
2022/12/05 06:48:16;;;;;;;5.50;2.43;;;7.50;90.80;;;;;;4955650;28;20182;-72
2022/12/05 06:50:49;;;;;;;2.83;2.23;;;7.40;90.70;;;;;;4952839;28;20265;-72
2022/12/05 06:53:15;;;;;;;3.37;2.30;;;7.40;90.70;;;;;;4952881;28;20281;-72
2022/12/05 06:55:40;;;;;;;2.47;2.27;;;7.40;90.70;;;;;;4953153;28;20183;-72
2022/12/05 06:58:06;;;;;;;8.53;2.00;;;7.50;90.80;;;;;;4953895;28;20630;-71
2022/12/05 07:03:16;;;;;;;2.60;2.40;;;7.60;90.70;;;;;;4950170;28;20225;-71
2022/12/05 07:05:41;;;;;;;2.83;2.20;;;7.60;90.60;;;;;;4952197;28;20198;-72
2022/12/05 07:08:07;;;;;;;2.37;2.17;;;7.60;90.40;;;;;;4953077;28;20186;-72
2022/12/05 07:10:33;;;;;;;1.77;1.67;;;7.60;90.50;;;;;;4950933;28;20786;-72
2022/12/05 07:12:58;;;;;;;2.23;2.03;;;7.70;90.60;;;;;;4952445;28;20207;-72
2022/12/05 07:15:24;;;;;;;4.43;2.43;;;7.60;90.40;;;;;;4951097;28;20209;-72
2022/12/05 07:17:50;;;;;;;2.80;1.90;;;7.60;90.50;;;;;;4951220;28;20219;-71
2022/12/05 07:20:16;;;;;;;2.50;2.23;;;7.60;90.40;;;;;;4948718;28;20182;-72
2022/12/05 07:22:44;;;;;;;2.00;1.90;;;7.70;90.40;;;;;;4955271;28;20588;-74
2022/12/05 07:25:10;;;;;;;2.50;2.40;;;7.70;90.50;;;;;;4947767;28;20179;-72
2022/12/05 07:27:35;;;;;;;3.37;2.37;;;7.70;90.60;;;;;;4948642;28;20924;-72
2022/12/05 07:30:01;;;;;;;8.37;2.13;;;7.80;90.70;;;;;;4949055;28;20183;-71
2022/12/05 07:32:32;;;;;;;2.10;2.00;;;7.80;90.60;;;;;;4952964;28;20326;-72
2022/12/05 07:34:58;;;;;;;3.23;2.43;;;7.90;90.50;;;;;;4954630;28;20233;-71
2022/12/05 07:37:23;;;;;;;2.83;2.60;;;7.90;90.40;;;;;;4950356;28;20191;-71
2022/12/05 07:39:53;;;;;;;2.10;1.90;;;7.90;90.50;;;;;;4944700;28;20183;-72
2022/12/05 07:42:19;;;;;;;2.53;2.33;;;7.90;90.10;;;;;;4951957;28;20189;-72
2022/12/05 07:44:45;;;;;;;7.30;2.50;;;8.00;90.00;;;;;;4956486;28;20179;-71
2022/12/05 07:47:11;;;;;;;5.00;1.87;;;8.00;89.90;;;;;;4956821;28;20186;-71
2022/12/05 07:49:36;;;;;;;4.10;2.57;;;8.00;90.10;;;;;;4954927;28;20191;-72
2022/12/05 07:52:02;;;;;;;4.13;3.00;;;8.00;90.10;;;;;;4958260;28;20218;-70
2022/12/05 07:54:28;;;;;;;2.13;1.97;;;8.00;90.10;;;;;;4953763;28;20199;-71
2022/12/05 07:56:53;;;;;;;2.83;2.63;;;8.10;90.10;;;;;;4952529;28;20183;-71
2022/12/05 07:59:19;;;;;;;2.20;2.00;;;8.10;89.80;;;;;;4954111;28;21688;-70
2022/12/05 08:01:45;;;;;;;2.87;2.17;;;8.10;89.80;;;;;;4956656;28;20215;-71
2022/12/05 08:04:10;;;;;;;2.77;2.57;;;8.10;89.80;;;;;;4956717;28;20244;-72
2022/12/05 08:06:36;;;;;;;2.50;2.30;;;8.10;89.50;;;;;;4956755;28;20190;-72
2022/12/05 08:09:02;;;;;;;5.27;2.67;;;8.20;89.40;;;;;;4954474;28;20215;-71
2022/12/05 08:11:31;;;;;;;3.70;2.53;;;8.10;89.40;;;;;;4957826;28;20302;-71
2022/12/05 08:13:57;;;;;;;4.30;3.20;;;8.10;89.50;;;;;;4937681;28;20833;-72
2022/12/05 08:16:27;;;;;;;4.60;2.63;;;8.20;89.50;;;;;;4952283;28;20179;-71
2022/12/05 08:19:04;;;;;;;2.90;2.63;;;8.00;89.30;;;;;;4956076;28;20198;-72
2022/12/05 08:21:30;;;;;;;3.13;2.73;;;8.00;89.20;;;;;;4957463;28;20196;-72
2022/12/05 08:23:56;;;;;;;4.17;3.30;;;8.00;89.60;;;;;;4954871;28;20187;-72
2022/12/05 08:26:27;;;;;;;2.67;2.47;;;8.00;89.60;;;;;;4954019;28;20178;-72
2022/12/05 08:28:55;;;;;;;2.30;2.10;;;8.00;89.80;;;;;;4952587;28;20190;-72
2022/12/05 08:31:25;;;;;;;2.13;1.93;;;8.10;89.90;;;;;;4952454;28;20190;-71
2022/12/05 08:33:51;;;;;;;2.40;2.30;;;8.10;90.10;;;;;;4953927;28;20191;-72
2022/12/05 08:36:18;;;;;;;5.80;1.67;;;8.20;89.80;;;;;;4957129;28;20238;-72
2022/12/05 08:38:44;;;;;;;2.27;2.07;;;8.20;89.90;;;;;;4954264;28;20634;-71
2022/12/05 08:41:13;;;;;;;2.90;2.43;;;8.30;90.00;;;;;;4957731;28;20956;-72
2022/12/05 08:43:39;;;;;;;2.30;2.10;;;8.30;90.00;;;;;;4952846;28;20193;-72
2022/12/05 08:46:06;;;;;;;2.43;2.27;;;8.40;89.80;;;;;;4956788;28;20209;-72
2022/12/05 08:48:32;;;;;;;2.83;2.30;;;8.40;89.70;;;;;;4956678;28;20178;-72
2022/12/05 08:50:58;;;;;;;1.67;1.63;;;8.50;89.20;;;;;;4954791;28;20177;-71
2022/12/05 08:53:25;;;;;;;3.77;2.13;;;8.50;89.30;;;;;;4957552;28;20313;-72
2022/12/05 08:55:50;;;;;;;2.57;2.20;;;8.60;89.10;;;;;;4951633;28;20217;-72
2022/12/05 08:58:16;;;;;;;2.47;2.27;;;8.60;89.10;;;;;;4958358;28;20722;-72
2022/12/05 09:00:42;;;;;;;1.67;1.57;;;8.60;89.50;;;;;;4954478;28;20187;-72
2022/12/05 09:03:10;;;;;;;3.23;2.43;;;8.70;89.10;;;;;;4954401;28;20250;-72
2022/12/05 09:05:36;;;;;;;1.83;1.73;;;8.80;89.10;;;;;;4951489;28;20206;-71
2022/12/05 09:08:02;;;;;;;2.00;1.90;;;8.80;88.00;;;;;;4955913;28;21162;-71
2022/12/05 09:10:27;;;;;;;3.27;1.93;;;8.90;88.30;;;;;;4950984;28;20269;-72
2022/12/05 09:12:53;;;;;;;1.33;1.33;;;8.90;88.60;;;;;;4950518;28;20214;-72
2022/12/05 09:15:19;;;;;;;1.95;1.95;;;8.90;88.50;;;;;;4935824;28;20302;-72
2022/12/05 09:17:45;;;;;;;2.00;1.90;;;8.90;88.00;;;;;;4947681;28;20583;-72
2022/12/05 09:20:12;;;;;;;2.33;2.13;;;8.90;88.00;;;;;;4945372;28;20198;-72
2022/12/05 09:22:39;;;;;;;2.93;2.13;;;9.00;87.60;;;;;;4949818;28;20187;-71
2022/12/05 09:25:06;;;;;;;1.95;1.80;;;9.00;88.00;;;;;;4953378;28;20181;-71
2022/12/05 09:27:31;;;;;;;4.93;2.50;;;8.90;87.40;;;;;;4952775;28;20276;-72
2022/12/05 09:29:57;;;;;;;1.65;1.65;;;9.00;87.40;;;;;;4950749;28;20731;-72
2022/12/05 09:32:23;;;;;;;1.17;1.10;;;8.90;86.50;;;;;;4951708;28;20219;-72
2022/12/05 09:34:49;;;;;;;0.85;0.85;;;8.90;85.90;;;;;;4946970;28;20195;-71
2022/12/05 09:37:14;;;;;;;3.08;0.90;;;8.90;85.50;;;;;;4946155;28;20187;-71
2022/12/05 09:39:43;;;;;;;0.93;0.90;;;8.80;85.70;;;;;;4945853;28;20199;-71
2022/12/05 09:42:35;;;;;;;1.88;1.42;;;8.70;86.10;;;;;;4933733;28;20688;-70
2022/12/05 09:45:19;;;;;;;1.05;0.75;;;8.80;86.70;;;;;;4947274;28;20884;-70
2022/12/05 09:47:56;;;;;;;1.13;0.98;;;8.80;86.80;;;;;;4944171;28;20187;-71
2022/12/05 09:50:36;;;;;;;1.27;1.27;;;8.70;86.30;;;;;;4947361;28;20186;-71
2022/12/05 09:53:37;;;;;;;1.20;1.20;;;8.60;86.60;;;;;;4947106;28;20233;-71
2022/12/05 09:56:20;;;;;;;1.33;0.95;;;8.60;86.80;;;;;;4944633;28;20570;-71
2022/12/05 09:58:52;;;;;;;1.10;1.10;;;8.60;87.10;;;;;;4945416;28;20268;-71
2022/12/05 10:01:39;;;;;;;1.43;1.43;;;8.60;86.80;;;;;;4948274;28;20257;-72
2022/12/05 10:04:33;;;;;;;1.50;1.40;;;8.50;86.60;;;;;;4947539;28;20190;-72
2022/12/05 10:07:14;;;;;;;2.67;1.20;;;8.50;86.80;;;;;;4948007;28;20698;-71
2022/12/05 10:10:16;;;;;;;1.00;1.00;;;8.50;86.70;;;;;;4951513;28;20197;-72
2022/12/05 10:13:18;;;;;;;1.13;1.02;;;8.50;87.00;;;;;;4955318;28;20302;-72
2022/12/05 10:15:47;;;;;;;1.33;1.23;;;8.60;86.60;;;;;;4945688;28;20715;-71
2022/12/05 10:18:39;;;;;;;2.55;1.92;;;8.60;86.40;;;;;;4929078;28;20186;-72
2022/12/05 10:21:20;;;;;;;2.00;1.90;;;8.60;86.30;;;;;;4879961;29;20290;-72
2022/12/05 10:23:54;;;;;;;1.47;1.47;;;8.60;86.60;;;;;;4882951;29;21048;-72
2022/12/05 10:26:23;;;;;;;3.30;1.80;;;8.70;86.80;;;;;;4880672;29;20671;-73
2022/12/05 10:29:09;;;;;;;2.20;2.03;;;8.70;86.80;;;;;;4882010;29;20253;-73
2022/12/05 10:31:37;;;;;;;2.20;2.03;;;8.70;86.90;;;;;;4799286;29;20374;-73
2022/12/05 10:34:22;;;;;;;1.77;1.67;;;8.70;87.40;;;;;;4798654;29;20201;-73
2022/12/05 10:36:57;;;;;;;3.55;2.40;;;8.80;87.00;;;;;;4801852;29;20214;-73
2022/12/05 10:39:23;;;;;;;1.50;1.40;;;8.80;87.40;;;;;;4806218;29;20199;-72
2022/12/05 10:41:49;;;;;;;1.92;1.83;;;8.90;87.60;;;;;;4799239;29;20203;-72
2022/12/05 10:44:14;;;;;;;2.15;1.95;;;9.00;87.30;;;;;;4799929;29;20204;-72
2022/12/05 10:46:40;;;;;;;2.75;2.22;;;9.00;86.80;;;;;;4799943;29;20210;-73
2022/12/05 10:49:12;;;;;;;2.08;1.88;;;9.10;86.60;;;;;;4801755;29;20764;-73
2022/12/05 10:51:38;;;;;;;1.73;1.63;;;9.00;86.40;;;;;;4802216;29;20258;-73
2022/12/05 10:54:24;;;;;;;2.47;1.58;;;9.10;86.60;;;;;;4806151;29;20191;-72
2022/12/05 10:56:52;;;;;;;1.40;1.40;;;9.10;86.90;;;;;;4799866;29;20350;-72
2022/12/05 10:59:24;;;;;;;2.30;2.10;;;9.10;87.10;;;;;;4858933;29;20211;-72
2022/12/05 11:01:55;;;;;;;1.77;1.60;;;9.20;86.90;;;;;;4852614;29;21106;-73
2022/12/05 11:04:25;;;;;;;3.13;2.80;;;9.20;87.20;;;;;;4858486;29;20194;-73
2022/12/05 11:07:04;;;;;;;2.10;1.95;;;9.20;87.30;;;;;;4858357;29;20718;-73
2022/12/05 11:09:37;;;;;;;2.30;2.20;;;9.30;87.20;;;;;;4925597;28;20623;-73
2022/12/05 11:12:18;;;;;;;1.80;1.70;;;9.30;87.00;;;;;;4947657;28;20217;-74
2022/12/05 11:15:02;;;;;;;2.38;2.17;;;9.40;86.80;;;;;;4935827;28;20929;-72
2022/12/05 11:17:36;;;;;;;3.88;1.80;;;9.40;86.50;;;;;;4952509;28;20630;-73
2022/12/05 11:20:22;;;;;;;3.15;1.92;;;9.40;86.40;;;;;;4951983;28;20187;-72
2022/12/05 11:22:55;;;;;;;1.35;1.35;;;9.40;86.40;;;;;;4944489;28;20698;-73
2022/12/05 11:25:23;;;;;;;2.08;1.98;;;9.50;85.80;;;;;;4932100;28;20232;-73
2022/12/05 11:27:49;;;;;;;1.40;1.40;;;9.50;85.50;;;;;;4951773;28;20662;-73
2022/12/05 11:30:20;;;;;;;2.25;2.05;;;9.50;85.50;;;;;;4951229;28;20187;-73
2022/12/05 11:32:46;;;;;;;1.75;1.65;;;9.40;85.20;;;;;;4950493;28;20219;-73
2022/12/05 11:35:11;;;;;;;3.08;2.83;;;9.30;85.70;;;;;;4954183;28;20198;-72
2022/12/05 11:37:57;;;;;;;3.38;2.40;;;9.30;85.90;;;;;;4954205;28;20269;-73
2022/12/05 11:40:47;;;;;;;2.22;2.13;;;9.30;86.10;;;;;;4950941;28;20201;-71
2022/12/05 11:43:47;;;;;;;2.05;1.95;;;9.30;86.20;;;;;;4952448;28;20797;-72
2022/12/05 11:46:28;;;;;;;2.08;1.98;;;9.40;86.20;;;;;;4954101;28;20202;-72
2022/12/05 11:49:06;;;;;;;2.83;2.38;;;9.40;85.50;;;;;;4937894;28;20679;-73
2022/12/05 11:51:36;;;;;;;2.45;2.25;;;9.40;85.30;;;;;;4937027;28;20672;-73
2022/12/05 11:54:04;;;;;;;2.33;2.22;;;9.40;85.80;;;;;;4954035;28;20187;-73
2022/12/05 11:56:37;;;;;;;5.82;2.58;;;9.40;85.90;;;;;;4954196;28;20198;-72
2022/12/05 11:59:43;;;;;;;2.22;1.98;;;9.30;86.10;;;;;;4953757;28;20186;-73
2022/12/05 12:02:34;;;;;;;2.72;2.42;;;9.40;85.70;;;;;;4955483;28;20189;-73
2022/12/05 12:05:20;;;;;;;2.35;2.15;;;9.40;85.50;;;;;;4954779;28;20595;-71
2022/12/05 12:07:56;;;;;;;2.78;2.38;;;9.40;85.60;;;;;;4952932;28;20214;-72
2022/12/05 12:10:29;;;;;;;2.15;1.98;;;9.40;85.90;;;;;;4949079;28;20715;-72
2022/12/05 12:13:19;;;;;;;3.33;3.00;;;9.40;85.00;;;;;;4953237;28;20309;-72
2022/12/05 12:15:45;;;;;;;2.40;2.20;;;9.40;84.90;;;;;;4951540;28;20588;-73
2022/12/05 12:18:17;;;;;;;2.63;2.42;;;9.30;85.10;;;;;;4954201;28;20186;-73
2022/12/05 12:21:07;;;;;;;2.50;2.38;;;9.20;85.20;;;;;;4952810;28;20680;-73
2022/12/05 12:23:36;;;;;;;2.70;2.05;;;9.20;85.50;;;;;;4950968;28;20183;-72
2022/12/05 12:26:54;;;;;;;2.42;2.22;;;9.10;85.50;;;;;;4952632;28;20194;-72
2022/12/05 12:29:55;;;;;;;2.65;2.22;;;9.10;85.90;;;;;;4865126;29;20252;-73
2022/12/05 12:33:04;;;;;;;2.60;2.40;;;9.00;85.70;;;;;;4864531;29;20234;-73
2022/12/05 12:35:40;;;;;;;3.45;2.80;;;8.90;85.90;;;;;;4844804;29;20202;-74
2022/12/05 12:38:24;;;;;;;3.13;2.83;;;8.90;86.00;;;;;;4846538;29;20205;-73
2022/12/05 12:40:58;;;;;;;2.45;2.25;;;8.90;86.30;;;;;;4844263;29;20271;-72
2022/12/05 12:43:56;;;;;;;4.25;3.05;;;8.90;86.60;;;;;;4844021;29;20187;-73
2022/12/05 12:46:50;;;;;;;2.70;2.50;;;8.80;86.40;;;;;;4844959;29;20212;-73
2022/12/05 12:49:40;;;;;;;3.63;2.92;;;8.70;86.50;;;;;;4844746;29;21273;-73
2022/12/05 12:52:19;;;;;;;3.15;2.95;;;8.70;86.70;;;;;;4841927;29;20343;-73
2022/12/05 12:55:12;;;;;;;5.30;4.03;;;8.80;86.80;;;;;;4844231;29;20199;-74
2022/12/05 12:57:59;;;;;;;4.70;3.50;;;8.80;86.80;;;;;;4846838;29;20261;-73
2022/12/05 13:00:39;;;;;;;4.70;3.75;;;8.80;86.70;;;;;;4848283;29;20238;-73
2022/12/05 13:03:30;;;;;;;4.73;3.50;;;8.80;86.80;;;;;;4847828;29;20195;-73
2022/12/05 13:06:04;;;;;;;3.47;3.15;;;8.80;86.70;;;;;;4916009;28;20211;-72
2022/12/05 13:08:54;;;;;;;3.08;2.90;;;8.80;86.80;;;;;;4953061;28;20195;-74
2022/12/05 13:11:21;;;;;;;7.43;3.87;;;8.80;86.90;;;;;;4951356;28;20194;-73
2022/12/05 13:13:53;;;;;;;3.85;3.30;;;8.80;86.80;;;;;;4954216;28;20191;-73
2022/12/05 13:16:27;;;;;;;3.88;3.58;;;8.80;86.70;;;;;;4950063;28;20959;-72
2022/12/05 13:18:54;;;;;;;3.15;2.88;;;8.70;86.70;;;;;;4951565;28;20293;-72
2022/12/05 13:21:21;;;;;;;4.90;3.20;;;8.60;86.80;;;;;;4951006;28;20191;-73
2022/12/05 13:24:02;;;;;;;2.93;2.73;;;8.60;86.90;;;;;;4952715;28;20325;-72
2022/12/05 13:26:29;;;;;;;4.40;3.23;;;8.60;86.90;;;;;;4935004;28;20281;-73
2022/12/05 13:28:58;;;;;;;8.20;4.03;;;8.60;87.00;;;;;;4949495;28;20285;-74
2022/12/05 13:31:40;;;;;;;5.63;4.00;;;8.50;87.10;;;;;;4949696;28;20214;-74
2022/12/05 13:34:26;;;;;;;7.07;3.80;;;8.60;87.00;;;;;;4948565;28;20195;-75